Time;durP1;ratioP1;P1;durP2;ratioP2;P2;SDS_P1;SDS_P2;PMS_P1;PMS_P2;Temp;Humidity;BMP_temperature;BMP_pressure;BME280_temperature;BME280_humidity;BME280_pressure;Samples;Min_cycle;Max_cycle;Signal;HPM_P1;HPM_P2
2023/04/20 00:01:05;;;;;;;7.90;4.00;;;;;;;6.18;82.16;101376.91;109154;1253;60927;-69
2023/04/20 00:03:34;;;;;;;6.70;4.30;;;;;;;6.15;82.10;101373.76;109322;1253;60443;-69
2023/04/20 00:06:01;;;;;;;6.60;3.80;;;;;;;6.11;82.37;101382.48;109299;1254;74411;-69
2023/04/20 00:08:28;;;;;;;6.90;4.10;;;;;;;6.09;82.58;101379.88;109240;1253;71274;-69
2023/04/20 00:10:54;;;;;;;8.70;4.10;;;;;;;6.09;82.53;101374.59;109401;1253;72439;-69
2023/04/20 00:13:21;;;;;;;8.10;4.30;;;;;;;6.08;82.59;101372.95;109182;1252;59620;-69
2023/04/20 00:15:48;;;;;;;5.60;3.50;;;;;;;6.06;82.64;101368.19;109342;1253;59452;-69
2023/04/20 00:18:15;;;;;;;8.60;3.90;;;;;;;6.04;82.71;101363.10;109174;1253;73125;-69
2023/04/20 00:20:42;;;;;;;7.10;3.80;;;;;;;6.00;82.32;101359.42;109325;1253;70297;-69
2023/04/20 00:23:08;;;;;;;6.10;3.10;;;;;;;5.92;82.33;101360.59;109328;1253;72331;-70
2023/04/20 00:25:35;;;;;;;6.80;3.90;;;;;;;5.85;82.59;101351.13;109296;1253;60021;-70
2023/04/20 00:28:02;;;;;;;8.20;3.80;;;;;;;5.84;81.74;101351.39;109339;1252;59383;-70
2023/04/20 00:30:29;;;;;;;7.10;3.50;;;;;;;5.80;82.34;101351.35;109375;1253;74745;-70
2023/04/20 00:32:55;;;;;;;6.70;3.50;;;;;;;5.79;82.27;101350.20;109273;1252;69611;-69
2023/04/20 00:35:23;;;;;;;7.10;3.60;;;;;;;5.79;82.48;101346.52;109319;1253;73173;-69
2023/04/20 00:37:49;;;;;;;8.60;3.60;;;;;;;5.76;83.18;101353.30;109322;1253;61109;-69
2023/04/20 00:40:16;;;;;;;7.40;3.50;;;;;;;5.71;83.07;101348.70;109224;1253;59057;-69
2023/04/20 00:42:43;;;;;;;6.00;4.00;;;;;;;5.68;83.30;101342.84;109330;1253;73763;-69
2023/04/20 00:45:10;;;;;;;7.00;3.70;;;;;;;5.68;83.27;101344.59;109211;1254;69712;-69
2023/04/20 00:47:37;;;;;;;9.00;3.70;;;;;;;5.69;83.21;101346.98;109351;1252;73598;-69
2023/04/20 00:50:06;;;;;;;8.90;4.00;;;;;;;5.70;83.46;101344.44;109346;1253;60931;-70
2023/04/20 00:52:33;;;;;;;8.30;3.40;;;;;;;5.70;83.39;101339.73;109298;1252;59412;-70
2023/04/20 00:55:00;;;;;;;9.20;3.90;;;;;;;5.69;83.64;101336.47;109316;1253;74785;-69
2023/04/20 00:57:27;;;;;;;7.70;3.60;;;;;;;5.69;83.59;101332.81;109302;1253;71682;-70
2023/04/20 00:59:54;;;;;;;7.90;3.80;;;;;;;5.69;84.00;101330.86;109134;1253;71561;-69
2023/04/20 01:02:20;;;;;;;9.80;4.40;;;;;;;5.67;84.28;101334.34;109248;1252;60888;-70
2023/04/20 01:04:47;;;;;;;7.60;4.10;;;;;;;5.66;84.19;101330.02;109226;1253;59584;-70
2023/04/20 01:07:14;;;;;;;9.00;4.00;;;;;;;5.67;84.19;101323.16;109339;1253;73268;-70
2023/04/20 01:09:41;;;;;;;7.50;4.10;;;;;;;5.66;84.62;101319.88;109093;1256;69972;-70
2023/04/20 01:12:09;;;;;;;7.50;4.00;;;;;;;5.66;84.65;101315.79;109066;1254;74649;-70
2023/04/20 01:14:36;;;;;;;8.00;4.10;;;;;;;5.66;84.59;101313.53;109181;1253;61546;-70
2023/04/20 01:17:03;;;;;;;10.10;4.30;;;;;;;5.70;84.63;101307.96;109120;1253;59649;-70
2023/04/20 01:19:30;;;;;;;7.60;3.90;;;;;;;5.70;84.61;101310.38;108963;1254;74849;-70
2023/04/20 01:21:56;;;;;;;8.20;4.10;;;;;;;5.70;84.93;101308.44;109370;1253;70794;-70
2023/04/20 01:24:23;;;;;;;8.30;3.80;;;;;;;5.69;85.01;101299.95;109233;1253;71276;-70
2023/04/20 01:26:50;;;;;;;7.30;3.90;;;;;;;5.69;84.85;101299.95;109100;1253;59686;-70
2023/04/20 01:29:16;;;;;;;7.40;3.80;;;;;;;5.70;84.62;101292.64;109251;1253;59084;-70
2023/04/20 01:31:43;;;;;;;8.50;3.70;;;;;;;5.72;85.05;101289.48;109080;1254;74007;-70
2023/04/20 01:34:10;;;;;;;7.60;3.90;;;;;;;5.74;84.94;101284.11;109227;1253;69972;-70
2023/04/20 01:36:37;;;;;;;8.00;3.90;;;;;;;5.76;84.89;101282.08;109028;1252;71298;-70
2023/04/20 01:39:04;;;;;;;9.70;3.80;;;;;;;5.74;85.24;101278.54;109162;1252;60429;-70
2023/04/20 01:41:30;;;;;;;7.80;4.10;;;;;;;5.73;85.20;101270.66;109229;1252;60061;-70
2023/04/20 01:43:57;;;;;;;9.90;3.90;;;;;;;5.76;85.00;101271.03;109207;1254;74802;-70
2023/04/20 01:46:24;;;;;;;9.50;3.60;;;;;;;5.76;85.40;101270.62;109306;1253;69727;-70
2023/04/20 01:48:51;;;;;;;6.10;3.50;;;;;;;5.76;85.32;101267.31;109279;1253;71622;-70
2023/04/20 01:51:17;;;;;;;8.40;3.90;;;;;;;5.73;85.44;101261.88;109325;1253;59851;-70
2023/04/20 01:53:44;;;;;;;7.30;4.30;;;;;;;5.74;85.23;101261.48;109396;1253;60163;-70
2023/04/20 01:56:11;;;;;;;7.30;4.30;;;;;;;5.72;85.47;101260.92;109304;1253;74783;-70
2023/04/20 01:58:38;;;;;;;7.70;4.00;;;;;;;5.72;85.17;101261.12;109379;1254;70958;-70
2023/04/20 02:01:04;;;;;;;7.90;4.00;;;;;;;5.71;85.59;101261.16;109253;1252;71447;-70
2023/04/20 02:03:31;;;;;;;6.50;3.80;;;;;;;5.74;85.52;101263.59;109327;1253;61187;-70
2023/04/20 02:05:58;;;;;;;7.00;4.00;;;;;;;5.76;85.66;101265.86;109199;1253;59507;-70
2023/04/20 02:08:25;;;;;;;6.60;4.20;;;;;;;5.79;85.61;101265.98;109290;1253;75293;-70
2023/04/20 02:10:52;;;;;;;7.60;4.10;;;;;;;5.81;85.77;101265.29;109297;1253;70392;-70
2023/04/20 02:13:18;;;;;;;9.00;4.50;;;;;;;5.83;85.55;101261.10;109287;1253;72396;-70
2023/04/20 02:15:45;;;;;;;7.80;4.30;;;;;;;5.85;85.57;101253.20;109276;1254;61174;-70
2023/04/20 02:18:12;;;;;;;8.80;4.70;;;;;;;5.86;85.55;101253.77;109347;1253;59146;-70
2023/04/20 02:20:38;;;;;;;8.10;4.40;;;;;;;5.86;85.91;101248.36;109369;1253;73255;-70
2023/04/20 02:23:05;;;;;;;9.30;4.60;;;;;;;5.86;85.89;101246.95;109232;1253;71261;-70
2023/04/20 02:25:32;;;;;;;9.50;4.30;;;;;;;5.85;86.20;101244.27;109398;1253;71438;-70
2023/04/20 02:27:59;;;;;;;7.10;4.10;;;;;;;5.85;85.82;101244.42;109279;1253;61329;-70
2023/04/20 02:30:26;;;;;;;7.90;4.50;;;;;;;5.86;85.82;101243.46;109327;1253;59097;-70
2023/04/20 02:32:53;;;;;;;7.70;4.10;;;;;;;5.85;86.30;101243.68;109206;1253;72702;-70
2023/04/20 02:35:19;;;;;;;9.40;4.90;;;;;;;5.84;86.12;101247.80;109024;1253;307286;-70
2023/04/20 02:37:46;;;;;;;11.90;4.70;;;;;;;5.84;86.05;101249.02;109300;1252;71182;-70
2023/04/20 02:40:13;;;;;;;10.50;5.00;;;;;;;5.85;86.21;101251.21;109342;1253;61895;-70
2023/04/20 02:42:40;;;;;;;8.50;4.30;;;;;;;5.87;86.32;101249.50;109302;1254;60456;-70
2023/04/20 02:45:08;;;;;;;8.60;4.60;;;;;;;5.86;86.51;101249.61;109190;1253;73214;-70
2023/04/20 02:47:34;;;;;;;8.30;4.30;;;;;;;5.82;86.77;101247.96;109278;1253;70081;-70
2023/04/20 02:50:01;;;;;;;10.60;5.00;;;;;;;5.80;86.73;101241.30;109322;1252;70742;-70
2023/04/20 02:52:28;;;;;;;9.60;4.80;;;;;;;5.80;86.95;101242.58;109317;1253;59903;-70
2023/04/20 02:54:55;;;;;;;10.30;5.00;;;;;;;5.79;87.04;101239.00;109353;1253;59094;-70
2023/04/20 02:57:22;;;;;;;8.60;4.80;;;;;;;5.77;87.30;101236.32;109377;1253;74186;-70
2023/04/20 02:59:48;;;;;;;10.30;4.70;;;;;;;5.77;86.95;101235.60;109389;1252;70012;-70
2023/04/20 03:02:15;;;;;;;9.30;4.70;;;;;;;5.78;87.38;101233.09;109349;1253;71160;-70
2023/04/20 03:04:42;;;;;;;9.10;4.70;;;;;;;5.77;87.45;101232.99;109299;1253;61278;-70
2023/04/20 03:07:09;;;;;;;10.60;5.10;;;;;;;5.77;87.26;101235.99;109234;1253;60584;-70
2023/04/20 03:09:36;;;;;;;8.30;4.80;;;;;;;5.75;87.23;101229.27;109291;1253;73441;-70
2023/04/20 03:12:03;;;;;;;8.60;4.20;;;;;;;5.73;87.52;101232.06;109292;1253;70029;-70
2023/04/20 03:14:30;;;;;;;9.30;4.80;;;;;;;5.72;87.60;101230.89;109368;1253;71438;-70
2023/04/20 03:16:57;;;;;;;9.50;4.80;;;;;;;5.70;87.50;101229.48;109261;1254;61088;-70
2023/04/20 03:19:24;;;;;;;10.40;5.30;;;;;;;5.70;87.35;101232.63;109258;1253;60097;-70
2023/04/20 03:21:50;;;;;;;9.10;4.80;;;;;;;5.70;86.97;101235.59;109355;1253;74689;-69
2023/04/20 03:24:18;;;;;;;8.70;4.90;;;;;;;5.72;87.08;101233.38;109240;1252;69857;-70
2023/04/20 03:26:44;;;;;;;9.70;5.30;;;;;;;5.74;87.12;101234.45;109333;1253;71554;-70
2023/04/20 03:29:11;;;;;;;7.30;4.60;;;;;;;5.77;86.96;101233.71;109239;1254;61193;-70
2023/04/20 03:31:38;;;;;;;9.50;5.30;;;;;;;5.78;87.10;101236.63;109410;1253;60401;-69
2023/04/20 03:34:04;;;;;;;8.90;4.80;;;;;;;5.79;87.00;101241.96;109331;1254;73330;-70
2023/04/20 03:36:31;;;;;;;9.10;4.90;;;;;;;5.81;86.82;101239.30;109387;1253;70096;-70
2023/04/20 03:38:58;;;;;;;8.70;5.10;;;;;;;5.82;86.81;101239.62;109180;1253;73512;-70
2023/04/20 03:41:25;;;;;;;8.70;5.50;;;;;;;5.82;86.65;101231.54;109410;1252;60999;-70
2023/04/20 03:43:51;;;;;;;10.40;5.60;;;;;;;5.83;86.47;101230.73;109193;1253;58971;-70
2023/04/20 03:46:19;;;;;;;8.80;5.00;;;;;;;5.86;86.32;101237.83;109164;1253;73486;-70
2023/04/20 03:48:48;;;;;;;10.30;5.20;;;;;;;5.88;86.27;101238.16;109390;1253;70240;-70
2023/04/20 03:51:15;;;;;;;10.20;5.20;;;;;;;5.91;86.13;101237.59;109387;1253;71110;-70
2023/04/20 03:53:42;;;;;;;9.60;5.90;;;;;;;5.91;86.20;101234.58;109292;1254;59101;-70
2023/04/20 03:56:09;;;;;;;7.90;5.20;;;;;;;5.91;86.14;101236.29;109215;1252;59093;-70
2023/04/20 03:58:35;;;;;;;9.80;5.80;;;;;;;5.94;85.97;101238.59;109372;1253;74803;-70
2023/04/20 04:01:09;;;;;;;9.20;5.30;;;;;;;5.96;86.13;101238.96;109316;1253;69701;-70
2023/04/20 04:03:36;;;;;;;11.00;5.70;;;;;;;5.97;86.12;101235.36;109212;1253;72453;-70
2023/04/20 04:06:03;;;;;;;9.30;5.40;;;;;;;5.98;85.95;101236.72;109371;1252;60037;-71
2023/04/20 04:08:30;;;;;;;9.80;5.70;;;;;;;5.98;86.33;101236.71;109142;1253;60439;-70
2023/04/20 04:10:58;;;;;;;9.80;5.70;;;;;;;5.99;86.35;101232.92;109236;1253;74555;-71
2023/04/20 04:13:25;;;;;;;10.80;5.90;;;;;;;6.00;86.62;101236.48;109336;1253;71497;-71
2023/04/20 04:15:51;;;;;;;8.60;5.40;;;;;;;6.03;86.58;101236.03;109356;1253;73755;-71
2023/04/20 04:18:20;;;;;;;9.20;5.40;;;;;;;6.06;86.57;101235.08;109367;1253;60876;-70
2023/04/20 04:20:47;;;;;;;9.00;5.90;;;;;;;6.07;87.12;101243.83;109157;1254;60372;-69
2023/04/20 04:23:14;;;;;;;10.80;6.00;;;;;;;6.05;87.01;101245.34;109300;1253;74709;-69
2023/04/20 04:25:41;;;;;;;9.20;5.50;;;;;;;6.05;86.96;101244.84;109128;1253;70765;-70
2023/04/20 04:28:07;;;;;;;11.80;5.60;;;;;;;6.06;87.21;101243.99;109337;1252;71099;-71
2023/04/20 04:30:34;;;;;;;9.10;5.90;;;;;;;6.10;87.34;101242.84;109339;1253;61722;-71
2023/04/20 04:33:03;;;;;;;11.00;5.70;;;;;;;6.15;87.10;101247.34;109327;1253;59133;-70
2023/04/20 04:35:33;;;;;;;10.00;6.00;;;;;;;6.17;87.12;101248.55;109256;1254;74065;-71
2023/04/20 04:37:59;;;;;;;9.60;5.70;;;;;;;6.20;86.84;101246.03;109305;1253;70417;-72
2023/04/20 04:40:26;;;;;;;16.00;9.20;;;;;;;6.23;86.86;101248.73;109182;1254;73721;-69
2023/04/20 04:42:54;;;;;;;12.30;6.30;;;;;;;6.25;86.87;101245.25;109149;1253;59345;-69
2023/04/20 04:45:20;;;;;;;11.10;5.70;;;;;;;6.26;86.62;101240.40;109361;1253;59104;-69
2023/04/20 04:47:47;;;;;;;11.30;5.80;;;;;;;6.27;86.73;101243.83;109366;1253;74369;-69
2023/04/20 04:50:14;;;;;;;10.90;6.50;;;;;;;6.28;86.60;101239.19;109332;1254;69581;-69
2023/04/20 04:52:40;;;;;;;9.30;5.70;;;;;;;6.30;86.53;101242.33;109334;1253;73620;-69
2023/04/20 04:55:08;;;;;;;8.50;5.60;;;;;;;6.32;86.37;101243.89;109292;1254;59098;-69
2023/04/20 04:57:35;;;;;;;10.50;5.50;;;;;;;6.34;86.82;101247.08;109304;1253;59359;-69
2023/04/20 05:00:05;;;;;;;12.80;6.20;;;;;;;6.36;86.48;101251.30;109119;1253;73872;-69
2023/04/20 05:02:32;;;;;;;10.30;5.60;;;;;;;6.37;86.88;101252.79;109207;1253;71218;-69
2023/04/20 05:04:59;;;;;;;8.90;5.40;;;;;;;6.36;86.54;101248.31;109338;1252;72680;-69
2023/04/20 05:07:25;;;;;;;10.00;5.50;;;;;;;6.36;86.63;101249.92;109346;1254;59179;-69
2023/04/20 05:09:52;;;;;;;11.20;5.90;;;;;;;6.34;86.92;101253.18;109268;1253;59275;-69
2023/04/20 05:12:18;;;;;;;9.70;5.40;;;;;;;6.37;86.82;101255.41;109384;1252;59126;-69
2023/04/20 05:14:45;;;;;;;8.30;5.60;;;;;;;6.39;86.81;101258.45;109424;1254;71746;-69
2023/04/20 05:17:11;;;;;;;11.10;6.30;;;;;;;6.41;86.76;101261.75;109364;1254;59019;-69
2023/04/20 05:19:38;;;;;;;11.70;6.20;;;;;;;6.43;86.68;101261.95;109161;1252;58991;-69
2023/04/20 05:22:04;;;;;;;10.70;5.60;;;;;;;6.44;86.84;101260.43;109331;1252;58998;-69
2023/04/20 05:24:31;;;;;;;9.90;5.90;;;;;;;6.42;86.98;101264.48;109344;1256;73278;-69
2023/04/20 05:26:57;;;;;;;12.70;6.30;;;;;;;6.44;87.52;101265.67;109340;1254;58385;-69
2023/04/20 05:29:24;;;;;;;13.30;6.90;;;;;;;6.54;88.28;101262.37;109293;1254;58986;-68
2023/04/20 05:31:50;;;;;;;11.90;6.30;;;;;;;6.63;87.58;101266.14;109365;1254;58960;-71
2023/04/20 05:34:17;;;;;;;9.00;5.90;;;;;;;6.69;87.41;101268.95;109339;1254;59270;-68
2023/04/20 05:36:45;;;;;;;10.10;6.20;;;;;;;6.74;87.14;101266.55;109365;1254;75899;-69
2023/04/20 05:39:12;;;;;;;11.70;5.80;;;;;;;6.82;87.33;101273.08;109337;1254;69994;-71
2023/04/20 05:41:39;;;;;;;8.10;5.40;;;;;;;6.87;86.40;101276.85;109227;1253;72280;-70
2023/04/20 05:44:05;;;;;;;9.60;5.10;;;;;;;6.90;85.77;101276.55;109391;1254;59641;-70
2023/04/20 05:46:32;;;;;;;8.30;4.90;;;;;;;6.90;85.40;101278.48;109180;1254;59291;-70
2023/04/20 05:48:58;;;;;;;10.40;5.70;;;;;;;6.89;85.18;101284.73;109273;1254;74406;-71
2023/04/20 05:51:27;;;;;;;8.90;5.80;;;;;;;6.90;85.24;101287.17;109395;1252;58842;-70
2023/04/20 05:53:54;;;;;;;10.60;5.70;;;;;;;6.92;85.11;101289.91;109372;1254;71185;-70
2023/04/20 05:56:20;;;;;;;7.70;5.40;;;;;;;6.95;84.95;101289.71;109328;1253;60212;-70
2023/04/20 05:58:47;;;;;;;10.20;5.80;;;;;;;6.97;85.09;101290.41;109381;1254;58988;-70
2023/04/20 06:01:14;;;;;;;9.70;5.90;;;;;;;7.00;84.63;101289.24;109412;1252;74032;-70
2023/04/20 06:03:40;;;;;;;10.30;5.50;;;;;;;7.04;84.69;101287.00;109442;1253;70850;-70
2023/04/20 06:06:07;;;;;;;46.80;33.10;;;;;;;7.11;84.52;101279.63;109374;1253;71815;-70
2023/04/20 06:08:34;;;;;;;9.10;5.60;;;;;;;7.21;83.94;101281.19;109317;1253;59627;-70
2023/04/20 06:11:01;;;;;;;10.20;5.80;;;;;;;7.31;83.60;101281.02;109115;1253;59155;-70
2023/04/20 06:13:27;;;;;;;8.50;5.70;;;;;;;7.42;83.14;101279.18;109188;1255;74491;-70
2023/04/20 06:15:54;;;;;;;15.90;8.80;;;;;;;7.50;83.33;101273.81;109305;1253;59045;-72
2023/04/20 06:18:21;;;;;;;8.20;6.00;;;;;;;7.61;82.76;101271.96;109194;1254;71391;-70
2023/04/20 06:20:48;;;;;;;8.70;5.70;;;;;;;7.71;82.80;101271.75;109408;1254;59620;-71
2023/04/20 06:23:15;;;;;;;10.60;6.50;;;;;;;7.81;82.48;101273.98;109428;1254;59003;-71
2023/04/20 06:25:42;;;;;;;10.10;6.00;;;;;;;7.91;82.25;101279.61;109345;1254;73757;-71
2023/04/20 06:28:08;;;;;;;10.20;6.50;;;;;;;7.99;81.72;101281.82;109423;1252;70911;-71
2023/04/20 06:30:35;;;;;;;9.50;6.50;;;;;;;8.03;81.82;101278.65;109388;1253;72771;-71
2023/04/20 06:33:02;;;;;;;7.90;5.50;;;;;;;8.03;81.39;101280.17;109324;1253;59138;-70
2023/04/20 06:35:29;;;;;;;22.00;13.90;;;;;;;8.00;81.10;101285.29;109254;1253;58955;-71
2023/04/20 06:37:56;;;;;;;19.20;13.60;;;;;;;7.93;81.22;101283.23;109431;1254;73959;-71
2023/04/20 06:40:26;;;;;;;10.70;7.30;;;;;;;7.94;81.40;101279.09;109394;1254;70025;-71
2023/04/20 06:42:52;;;;;;;11.30;6.70;;;;;;;8.02;81.50;101280.63;109231;1254;72761;-70
2023/04/20 06:45:20;;;;;;;23.00;16.00;;;;;;;8.15;81.93;101277.84;109257;1253;59564;-70
2023/04/20 06:47:46;;;;;;;9.50;6.00;;;;;;;8.33;82.00;101277.68;109391;1256;58928;-70
2023/04/20 06:50:13;;;;;;;9.40;5.80;;;;;;;8.53;81.56;101277.58;109256;1254;75112;-71
2023/04/20 06:52:40;;;;;;;8.90;5.70;;;;;;;8.66;80.30;101282.05;109422;1256;69632;-71
2023/04/20 06:55:09;;;;;;;40.70;27.40;;;;;;;8.75;79.36;101282.92;109363;1255;72368;-70
2023/04/20 06:57:38;;;;;;;8.70;5.10;;;;;;;8.79;78.56;101281.45;109398;1253;59701;-71
2023/04/20 07:00:09;;;;;;;8.00;5.30;;;;;;;8.78;77.82;101282.61;109361;1253;60074;-72
2023/04/20 07:02:48;;;;;;;8.30;5.20;;;;;;;8.74;77.69;101281.95;109207;1253;74886;-71
2023/04/20 07:05:16;;;;;;;8.20;5.50;;;;;;;8.70;77.47;101285.84;109271;1255;69868;-72
2023/04/20 07:07:44;;;;;;;8.20;5.70;;;;;;;8.64;77.03;101286.44;109392;1253;70634;-71
2023/04/20 07:10:12;;;;;;;8.80;5.70;;;;;;;8.54;76.43;101289.33;109422;1254;60244;-72
2023/04/20 07:12:40;;;;;;;7.80;5.80;;;;;;;8.43;76.59;101291.10;109434;1255;58825;-72
2023/04/20 07:15:10;;;;;;;9.00;5.50;;;;;;;8.31;76.82;101293.44;109279;1253;73214;-73
2023/04/20 07:17:36;;;;;;;8.10;5.60;;;;;;;8.23;76.70;101288.40;109255;1254;71220;-72
2023/04/20 07:20:07;;;;;;;9.80;5.90;;;;;;;8.21;77.40;101294.39;109407;1254;71479;-72
2023/04/20 07:22:35;;;;;;;8.60;5.20;;;;;;;8.23;77.64;101287.52;109462;1253;61277;-72
2023/04/20 07:25:03;;;;;;;10.00;6.20;;;;;;;8.35;77.91;101283.38;109359;1253;58825;-72
2023/04/20 07:27:34;;;;;;;10.60;6.00;;;;;;;8.49;77.87;101288.25;109437;1253;74720;-72
2023/04/20 07:30:01;;;;;;;7.30;5.50;;;;;;;8.63;77.42;101289.90;109377;1254;69718;-72
2023/04/20 07:32:28;;;;;;;8.50;5.30;;;;;;;8.72;76.75;101292.00;109188;1254;72396;-72
2023/04/20 07:34:54;;;;;;;8.90;5.80;;;;;;;8.83;76.21;101295.56;109286;1253;61330;-72
2023/04/20 07:37:21;;;;;;;8.90;5.70;;;;;;;8.97;75.99;101295.80;109214;1254;59145;-72
2023/04/20 07:39:52;;;;;;;8.90;5.40;;;;;;;9.07;75.14;101293.98;109417;1253;74774;-72
2023/04/20 07:42:20;;;;;;;9.30;5.60;;;;;;;9.16;73.61;101293.38;109302;1253;70902;-72
2023/04/20 07:44:47;;;;;;;8.90;5.80;;;;;;;9.28;73.65;101290.27;109157;1254;73035;-72
2023/04/20 07:47:14;;;;;;;10.40;6.00;;;;;;;9.40;73.36;101294.94;109282;1253;61342;-72
2023/04/20 07:49:42;;;;;;;9.30;5.70;;;;;;;9.49;72.62;101296.63;109212;1253;58878;-73
2023/04/20 07:52:09;;;;;;;8.20;5.40;;;;;;;9.58;71.96;101300.05;109408;1253;74643;-73
2023/04/20 07:54:43;;;;;;;7.00;5.60;;;;;;;9.62;71.44;101299.08;109473;1253;71238;-72
2023/04/20 07:57:10;;;;;;;9.20;5.20;;;;;;;9.73;71.07;101299.20;109002;1254;71502;-73
2023/04/20 07:59:38;;;;;;;7.30;5.30;;;;;;;9.82;70.36;101300.54;109198;1254;60725;-73
2023/04/20 08:02:05;;;;;;;7.40;4.90;;;;;;;9.95;69.91;101302.27;109423;1253;60053;-72
2023/04/20 08:04:32;;;;;;;8.90;5.80;;;;;;;10.09;69.80;101301.41;109288;1254;72983;-72
2023/04/20 08:06:59;;;;;;;8.00;5.40;;;;;;;10.24;69.58;101301.85;109277;1253;72436;-72
2023/04/20 08:09:27;;;;;;;8.30;5.30;;;;;;;10.42;68.76;101295.80;109327;1254;72507;-73
2023/04/20 08:11:54;;;;;;;5.80;4.60;;;;;;;10.47;66.70;101296.31;109270;1253;63182;-72
2023/04/20 08:14:21;;;;;;;6.20;4.70;;;;;;;10.46;65.57;101294.66;109436;1254;59264;-73
2023/04/20 08:16:47;;;;;;;7.30;4.70;;;;;;;10.51;65.43;101300.48;109375;1253;73710;-73
2023/04/20 08:19:14;;;;;;;7.00;5.00;;;;;;;10.68;66.29;101304.91;109393;1254;71300;-73
2023/04/20 08:21:41;;;;;;;6.60;5.40;;;;;;;10.79;65.40;101299.09;109394;1253;71543;-73
2023/04/20 08:24:08;;;;;;;6.90;5.40;;;;;;;10.87;64.50;101304.66;109213;1254;60718;-73
2023/04/20 08:26:35;;;;;;;7.50;5.10;;;;;;;10.91;63.90;101305.66;109249;1254;60050;-73
2023/04/20 08:29:03;;;;;;;7.20;5.20;;;;;;;10.84;63.31;101305.13;109109;1253;73508;-73
2023/04/20 08:31:30;;;;;;;7.10;4.90;;;;;;;10.83;63.82;101310.77;109461;1253;71491;-73
2023/04/20 08:33:57;;;;;;;6.80;4.60;;;;;;;10.75;63.16;101314.44;109424;1252;71521;-73
2023/04/20 08:36:23;;;;;;;6.90;4.80;;;;;;;10.72;62.89;101315.95;109293;1254;61352;-73
2023/04/20 08:38:54;;;;;;;7.60;5.00;;;;;;;10.73;63.14;101316.35;109236;1253;60024;-73
2023/04/20 08:41:21;;;;;;;7.90;5.30;;;;;;;10.83;63.50;101317.61;109176;1253;74655;-73
2023/04/20 08:43:49;;;;;;;7.00;4.90;;;;;;;10.89;62.45;101318.75;109311;1254;70662;-73
2023/04/20 08:46:16;;;;;;;6.80;5.00;;;;;;;10.88;62.27;101320.17;109264;1253;72774;-73
2023/04/20 08:48:45;;;;;;;8.00;5.10;;;;;;;10.84;62.48;101319.56;109138;1254;63929;-73
2023/04/20 08:51:14;;;;;;;7.30;4.70;;;;;;;10.72;62.46;101319.73;109463;1253;58885;-71
2023/04/20 08:53:41;;;;;;;6.80;4.90;;;;;;;10.66;62.69;101316.81;109391;1253;73163;-73
2023/04/20 08:56:08;;;;;;;6.60;5.00;;;;;;;10.60;62.79;101313.91;109410;1253;70319;-74
2023/04/20 08:58:37;;;;;;;8.30;5.40;;;;;;;10.61;63.02;101314.61;109254;1254;71125;-74
2023/04/20 09:01:04;;;;;;;7.00;5.40;;;;;;;10.69;62.51;101310.46;109404;1252;61167;-74
2023/04/20 09:03:35;;;;;;;6.30;4.30;;;;;;;10.77;61.67;101312.60;109460;1253;59394;-74
2023/04/20 09:06:14;;;;;;;6.30;4.60;;;;;;;10.75;60.75;101308.02;109256;1253;74186;-74
2023/04/20 09:08:41;;;;;;;4.80;3.60;;;;;;;10.80;60.52;101303.50;109425;1253;70907;-74
2023/04/20 09:11:20;;;;;;;5.80;3.80;;;;;;;10.83;58.94;101303.98;109470;1254;72441;-74
2023/04/20 09:14:09;;;;;;;5.50;3.50;;;;;;;10.91;56.98;101304.27;109412;1253;60111;-74
2023/04/20 09:16:38;;;;;;;5.00;3.70;;;;;;;11.04;56.91;101307.87;109316;1254;59498;-74
2023/04/20 09:19:05;;;;;;;5.40;4.40;;;;;;;11.18;56.96;101309.56;109252;1253;73575;-74
2023/04/20 09:21:34;;;;;;;4.70;4.00;;;;;;;11.31;56.18;101310.66;109422;1252;69960;-74
2023/04/20 09:24:08;;;;;;;5.70;3.60;;;;;;;11.44;56.21;101312.61;109377;1253;71249;-74
2023/04/20 09:26:35;;;;;;;5.50;3.70;;;;;;;11.55;56.21;101314.92;109395;1254;59374;-74
2023/04/20 09:29:02;;;;;;;5.10;3.40;;;;;;;11.59;55.46;101317.83;109209;1257;59023;-73
2023/04/20 09:31:29;;;;;;;3.90;3.20;;;;;;;11.61;55.27;101317.63;109460;1252;74983;-73
2023/04/20 09:34:00;;;;;;;3.80;3.00;;;;;;;11.61;54.04;101318.02;109416;1254;69948;-74
2023/04/20 09:36:41;;;;;;;5.00;3.60;;;;;;;11.65;53.85;101314.20;109242;1254;71509;-73
2023/04/20 09:39:12;;;;;;;5.20;3.20;;;;;;;11.78;53.86;101311.00;109260;1252;60409;-73
2023/04/20 09:41:40;;;;;;;5.20;3.20;;;;;;;11.86;53.78;101311.60;109244;1254;59011;-71
2023/04/20 09:44:08;;;;;;;4.20;3.20;;;;;;;11.94;53.02;101312.67;109183;1254;74368;-73
2023/04/20 09:46:37;;;;;;;4.60;3.60;;;;;;;11.97;53.35;101315.37;109202;1254;70879;-74
2023/04/20 09:49:06;;;;;;;5.20;4.20;;;;;;;12.10;54.03;101312.05;109301;1253;74137;-74
2023/04/20 09:51:36;;;;;;;5.50;4.60;;;;;;;12.32;54.45;101314.88;109190;1254;60200;-71
2023/04/20 09:54:05;;;;;;;5.20;4.40;;;;;;;12.65;54.11;101308.73;109036;1253;59022;-74
2023/04/20 09:56:33;;;;;;;6.70;5.10;;;;;;;12.82;52.68;101310.83;109389;1253;74393;-72
2023/04/20 09:59:02;;;;;;;6.40;4.30;;;;;;;12.93;51.90;101313.39;109218;1253;71225;-74
2023/04/20 10:01:32;;;;;;;5.40;4.20;;;;;;;13.03;51.89;101313.91;109117;1254;71546;-74
2023/04/20 10:04:00;;;;;;;5.80;4.70;;;;;;;13.13;51.72;101309.42;109160;1253;60095;-74
2023/04/20 10:06:29;;;;;;;5.40;4.60;;;;;;;13.22;50.77;101313.33;109224;1254;58936;-71
2023/04/20 10:08:56;;;;;;;6.00;4.60;;;;;;;13.29;50.72;101311.67;109238;1253;74444;-74
2023/04/20 10:11:35;;;;;;;6.60;4.60;;;;;;;13.34;50.13;101309.71;109448;1253;70883;-74
2023/04/20 10:14:24;;;;;;;5.10;4.00;;;;;;;13.23;49.69;101320.16;109156;1253;72607;-74
2023/04/20 10:17:28;;;;;;;6.20;4.40;;;;;;;13.11;48.93;101318.24;109411;1253;58978;-74
2023/04/20 10:19:55;;;;;;;5.20;4.20;;;;;;;12.98;49.03;101321.41;109391;1253;59543;-75
2023/04/20 10:22:31;;;;;;;5.00;4.20;;;;;;;13.09;49.97;101318.95;109460;1253;74673;-74
2023/04/20 10:25:00;;;;;;;5.20;3.90;;;;;;;13.37;49.17;101314.39;109292;1254;70969;-73
2023/04/20 10:27:27;;;;;;;5.80;4.50;;;;;;;13.44;48.73;101318.55;109420;1253;72765;-72
2023/04/20 10:29:54;;;;;;;5.00;3.90;;;;;;;13.34;48.88;101321.48;109279;1253;59353;-72
2023/04/20 10:32:27;;;;;;;4.50;3.60;;;;;;;13.30;48.32;101318.36;109420;1253;58978;-72
2023/04/20 10:35:12;;;;;;;4.50;3.70;;;;;;;13.26;48.12;101312.05;109327;1252;73942;-72
2023/04/20 10:37:50;;;;;;;5.80;3.70;;;;;;;13.36;48.94;101313.19;109296;1253;70134;-73
2023/04/20 10:40:25;;;;;;;5.70;4.20;;;;;;;13.55;48.79;101309.83;109274;1254;71502;-72
2023/04/20 10:42:52;;;;;;;4.60;3.80;;;;;;;13.65;48.04;101300.30;109318;1252;60121;-73
2023/04/20 10:45:20;;;;;;;5.60;4.20;;;;;;;13.75;48.34;101298.24;109335;1253;60140;-73
2023/04/20 10:47:47;;;;;;;5.60;4.30;;;;;;;13.88;48.20;101299.08;109319;1254;74712;-74
2023/04/20 10:50:15;;;;;;;4.10;3.60;;;;;;;14.00;47.54;101303.44;109456;1253;70034;-73
2023/04/20 10:52:43;;;;;;;4.80;4.00;;;;;;;14.24;47.91;101301.61;109249;1254;72364;-74
2023/04/20 10:55:21;;;;;;;5.20;4.20;;;;;;;14.50;46.72;101297.93;109183;1253;60191;-74
2023/04/20 10:57:48;;;;;;;4.90;4.10;;;;;;;14.68;46.24;101297.28;109416;1252;59462;-74
2023/04/20 11:00:15;;;;;;;5.60;4.20;;;;;;;14.90;46.10;101300.61;109408;1253;72956;-74
2023/04/20 11:02:49;;;;;;;5.60;4.00;;;;;;;14.96;45.13;101302.33;109466;1253;71708;-74
2023/04/20 11:05:17;;;;;;;5.90;3.90;;;;;;;15.06;44.89;101302.17;109315;1253;72659;-74
2023/04/20 11:07:51;;;;;;;4.70;3.90;;;;;;;15.23;45.02;101297.95;109457;1253;59141;-74
2023/04/20 11:10:18;;;;;;;5.70;3.80;;;;;;;15.44;44.50;101300.89;109324;1253;60265;-74
2023/04/20 11:12:45;;;;;;;5.20;4.20;;;;;;;15.45;43.41;101300.41;109214;1253;72711;-74
2023/04/20 11:15:12;;;;;;;6.40;4.60;;;;;;;15.36;43.58;101295.61;109221;1253;71059;-74
2023/04/20 11:17:39;;;;;;;4.80;3.90;;;;;;;15.29;44.26;101292.02;109301;1253;70794;-74
2023/04/20 11:20:13;;;;;;;6.00;4.70;;;;;;;15.27;43.86;101286.52;109217;1254;59066;-74
2023/04/20 11:22:41;;;;;;;4.90;4.10;;;;;;;15.22;43.79;101285.00;109410;1253;59397;-74
2023/04/20 11:25:09;;;;;;;5.10;3.90;;;;;;;15.14;43.44;101280.14;109095;1253;74886;-73